sensor_id;sensor_type;location;lat;lon;timestamp;temperature;humidity
32536;DHT22;18974;50.838;4.636;2022-12-10T00:01:40;1.90;99.90
32536;DHT22;18974;50.838;4.636;2022-12-10T00:04:06;1.80;99.90
32536;DHT22;18974;50.838;4.636;2022-12-10T00:06:34;1.60;99.90
32536;DHT22;18974;50.838;4.636;2022-12-10T00:09:02;1.60;99.90
32536;DHT22;18974;50.838;4.636;2022-12-10T00:11:28;1.60;99.90
32536;DHT22;18974;50.838;4.636;2022-12-10T00:13:54;1.60;99.90
32536;DHT22;18974;50.838;4.636;2022-12-10T00:16:23;1.60;99.90
32536;DHT22;18974;50.838;4.636;2022-12-10T00:18:49;1.70;99.90
32536;DHT22;18974;50.838;4.636;2022-12-10T00:21:18;1.80;99.90
32536;DHT22;18974;50.838;4.636;2022-12-10T00:23:45;1.80;99.90
32536;DHT22;18974;50.838;4.636;2022-12-10T00:26:17;1.70;99.90
32536;DHT22;18974;50.838;4.636;2022-12-10T00:28:44;1.70;99.90
32536;DHT22;18974;50.838;4.636;2022-12-10T00:31:15;1.60;99.90
32536;DHT22;18974;50.838;4.636;2022-12-10T00:33:41;1.60;99.90
32536;DHT22;18974;50.838;4.636;2022-12-10T00:36:19;1.70;99.90
32536;DHT22;18974;50.838;4.636;2022-12-10T00:38:46;1.70;99.90
32536;DHT22;18974;50.838;4.636;2022-12-10T00:41:13;1.70;99.90
32536;DHT22;18974;50.838;4.636;2022-12-10T00:43:39;1.70;99.90
32536;DHT22;18974;50.838;4.636;2022-12-10T00:46:05;1.60;99.90
32536;DHT22;18974;50.838;4.636;2022-12-10T00:48:31;1.70;99.90
32536;DHT22;18974;50.838;4.636;2022-12-10T00:51:03;1.70;99.90
32536;DHT22;18974;50.838;4.636;2022-12-10T00:53:31;1.50;99.90
32536;DHT22;18974;50.838;4.636;2022-12-10T00:55:58;1.40;99.90
32536;DHT22;18974;50.838;4.636;2022-12-10T00:58:26;1.40;99.90
32536;DHT22;18974;50.838;4.636;2022-12-10T01:00:52;1.30;99.90
32536;DHT22;18974;50.838;4.636;2022-12-10T01:03:17;1.20;99.90
32536;DHT22;18974;50.838;4.636;2022-12-10T01:05:43;1.20;99.90
32536;DHT22;18974;50.838;4.636;2022-12-10T01:08:09;1.40;99.90
32536;DHT22;18974;50.838;4.636;2022-12-10T01:10:35;1.40;99.90
32536;DHT22;18974;50.838;4.636;2022-12-10T01:13:01;1.40;99.90
32536;DHT22;18974;50.838;4.636;2022-12-10T01:15:26;1.40;99.90
32536;DHT22;18974;50.838;4.636;2022-12-10T01:17:52;1.40;99.90
32536;DHT22;18974;50.838;4.636;2022-12-10T01:20:18;1.50;99.90
32536;DHT22;18974;50.838;4.636;2022-12-10T01:22:43;1.40;99.90
32536;DHT22;18974;50.838;4.636;2022-12-10T01:25:09;1.40;99.90
32536;DHT22;18974;50.838;4.636;2022-12-10T01:27:35;1.50;99.90
32536;DHT22;18974;50.838;4.636;2022-12-10T01:30:00;1.40;99.90
32536;DHT22;18974;50.838;4.636;2022-12-10T01:32:26;1.30;99.90
32536;DHT22;18974;50.838;4.636;2022-12-10T01:34:52;1.30;99.90
32536;DHT22;18974;50.838;4.636;2022-12-10T01:37:17;1.40;99.90
32536;DHT22;18974;50.838;4.636;2022-12-10T01:39:43;1.30;99.90
32536;DHT22;18974;50.838;4.636;2022-12-10T01:42:12;1.20;99.90
32536;DHT22;18974;50.838;4.636;2022-12-10T01:47:08;1.10;99.90
32536;DHT22;18974;50.838;4.636;2022-12-10T01:49:39;1.20;99.90
32536;DHT22;18974;50.838;4.636;2022-12-10T01:52:07;1.20;99.90
32536;DHT22;18974;50.838;4.636;2022-12-10T01:54:37;1.40;99.90
32536;DHT22;18974;50.838;4.636;2022-12-10T01:57:07;1.40;99.90
32536;DHT22;18974;50.838;4.636;2022-12-10T01:59:35;1.30;99.90
32536;DHT22;18974;50.838;4.636;2022-12-10T02:13:39;0.90;99.90
32536;DHT22;18974;50.838;4.636;2022-12-10T02:16:14;0.90;99.90
32536;DHT22;18974;50.838;4.636;2022-12-10T02:19:03;1.00;99.90
32536;DHT22;18974;50.838;4.636;2022-12-10T02:21:38;1.10;99.90
32536;DHT22;18974;50.838;4.636;2022-12-10T02:24:10;1.20;99.90
32536;DHT22;18974;50.838;4.636;2022-12-10T02:26:44;1.30;99.90
32536;DHT22;18974;50.838;4.636;2022-12-10T02:29:15;1.20;99.90
32536;DHT22;18974;50.838;4.636;2022-12-10T02:31:46;1.20;99.90
32536;DHT22;18974;50.838;4.636;2022-12-10T02:34:13;1.20;99.90
32536;DHT22;18974;50.838;4.636;2022-12-10T02:36:42;1.10;99.90
32536;DHT22;18974;50.838;4.636;2022-12-10T02:39:11;1.30;99.90
32536;DHT22;18974;50.838;4.636;2022-12-10T02:41:42;1.20;99.90
32536;DHT22;18974;50.838;4.636;2022-12-10T02:44:12;1.30;99.90
32536;DHT22;18974;50.838;4.636;2022-12-10T02:46:39;1.30;99.90
32536;DHT22;18974;50.838;4.636;2022-12-10T02:49:07;1.20;99.90
32536;DHT22;18974;50.838;4.636;2022-12-10T02:51:33;1.20;99.90
32536;DHT22;18974;50.838;4.636;2022-12-10T02:54:04;1.20;99.90
32536;DHT22;18974;50.838;4.636;2022-12-10T02:56:50;1.10;99.90
32536;DHT22;18974;50.838;4.636;2022-12-10T02:59:38;1.20;99.90
32536;DHT22;18974;50.838;4.636;2022-12-10T03:02:14;1.20;99.90
32536;DHT22;18974;50.838;4.636;2022-12-10T03:04:49;1.30;99.90
32536;DHT22;18974;50.838;4.636;2022-12-10T03:08:02;1.30;99.90
32536;DHT22;18974;50.838;4.636;2022-12-10T03:11:13;1.20;99.90
32536;DHT22;18974;50.838;4.636;2022-12-10T03:13:15;1.10;99.90
32536;DHT22;18974;50.838;4.636;2022-12-10T03:15:42;1.20;99.90
32536;DHT22;18974;50.838;4.636;2022-12-10T03:18:10;1.20;99.90
32536;DHT22;18974;50.838;4.636;2022-12-10T03:20:40;1.20;99.90
32536;DHT22;18974;50.838;4.636;2022-12-10T03:23:09;1.30;99.90
32536;DHT22;18974;50.838;4.636;2022-12-10T03:25:37;1.30;99.90
32536;DHT22;18974;50.838;4.636;2022-12-10T03:28:04;1.30;99.90
32536;DHT22;18974;50.838;4.636;2022-12-10T03:30:34;1.30;99.90
32536;DHT22;18974;50.838;4.636;2022-12-10T03:33:02;1.30;99.90
32536;DHT22;18974;50.838;4.636;2022-12-10T03:35:28;1.30;99.90
32536;DHT22;18974;50.838;4.636;2022-12-10T03:37:54;1.30;99.90
32536;DHT22;18974;50.838;4.636;2022-12-10T03:40:22;1.30;99.90
32536;DHT22;18974;50.838;4.636;2022-12-10T03:42:48;1.40;99.90
32536;DHT22;18974;50.838;4.636;2022-12-10T03:45:14;1.50;99.90
32536;DHT22;18974;50.838;4.636;2022-12-10T03:47:41;1.40;99.90
32536;DHT22;18974;50.838;4.636;2022-12-10T03:50:07;1.40;99.90
32536;DHT22;18974;50.838;4.636;2022-12-10T03:52:33;1.40;99.90
32536;DHT22;18974;50.838;4.636;2022-12-10T03:54:58;1.40;99.90
32536;DHT22;18974;50.838;4.636;2022-12-10T03:57:24;1.40;99.90
32536;DHT22;18974;50.838;4.636;2022-12-10T03:59:50;1.40;99.90
32536;DHT22;18974;50.838;4.636;2022-12-10T04:02:15;1.40;99.90
32536;DHT22;18974;50.838;4.636;2022-12-10T04:04:41;1.40;99.90
32536;DHT22;18974;50.838;4.636;2022-12-10T04:07:07;1.40;99.90
32536;DHT22;18974;50.838;4.636;2022-12-10T04:09:33;1.50;99.90
32536;DHT22;18974;50.838;4.636;2022-12-10T04:11:59;1.40;99.90
32536;DHT22;18974;50.838;4.636;2022-12-10T04:14:26;1.40;99.90
32536;DHT22;18974;50.838;4.636;2022-12-10T04:17:10;1.40;99.90
32536;DHT22;18974;50.838;4.636;2022-12-10T04:19:36;1.30;99.90
32536;DHT22;18974;50.838;4.636;2022-12-10T04:22:02;1.40;99.90
32536;DHT22;18974;50.838;4.636;2022-12-10T04:24:46;1.40;99.90
32536;DHT22;18974;50.838;4.636;2022-12-10T04:27:32;1.40;99.90
32536;DHT22;18974;50.838;4.636;2022-12-10T04:30:00;1.30;99.90
32536;DHT22;18974;50.838;4.636;2022-12-10T04:32:27;1.40;99.90
32536;DHT22;18974;50.838;4.636;2022-12-10T04:34:54;1.40;99.90
32536;DHT22;18974;50.838;4.636;2022-12-10T04:37:20;1.50;99.90
32536;DHT22;18974;50.838;4.636;2022-12-10T04:39:46;1.50;99.90
32536;DHT22;18974;50.838;4.636;2022-12-10T04:42:12;1.50;99.90
32536;DHT22;18974;50.838;4.636;2022-12-10T04:44:38;1.50;99.90
32536;DHT22;18974;50.838;4.636;2022-12-10T04:47:05;1.50;99.90
32536;DHT22;18974;50.838;4.636;2022-12-10T04:49:31;1.40;99.90
32536;DHT22;18974;50.838;4.636;2022-12-10T04:51:56;1.50;99.90
32536;DHT22;18974;50.838;4.636;2022-12-10T04:54:22;1.40;99.90
32536;DHT22;18974;50.838;4.636;2022-12-10T04:56:48;1.30;99.90
32536;DHT22;18974;50.838;4.636;2022-12-10T04:59:14;1.30;99.90
32536;DHT22;18974;50.838;4.636;2022-12-10T05:01:40;1.20;99.90
32536;DHT22;18974;50.838;4.636;2022-12-10T05:04:08;1.10;99.90
32536;DHT22;18974;50.838;4.636;2022-12-10T05:06:35;1.10;99.90
32536;DHT22;18974;50.838;4.636;2022-12-10T05:09:01;1.10;99.90
32536;DHT22;18974;50.838;4.636;2022-12-10T05:11:28;1.20;99.90
32536;DHT22;18974;50.838;4.636;2022-12-10T05:13:55;1.20;99.90
32536;DHT22;18974;50.838;4.636;2022-12-10T05:16:22;1.20;99.90
32536;DHT22;18974;50.838;4.636;2022-12-10T05:18:49;1.10;99.90
32536;DHT22;18974;50.838;4.636;2022-12-10T05:21:17;1.20;99.90
32536;DHT22;18974;50.838;4.636;2022-12-10T05:23:45;1.10;99.90
32536;DHT22;18974;50.838;4.636;2022-12-10T05:26:17;1.10;99.90
32536;DHT22;18974;50.838;4.636;2022-12-10T05:28:50;1.10;99.90
32536;DHT22;18974;50.838;4.636;2022-12-10T05:31:18;1.20;99.90
32536;DHT22;18974;50.838;4.636;2022-12-10T05:33:44;1.20;99.90
32536;DHT22;18974;50.838;4.636;2022-12-10T05:36:12;1.10;99.90
32536;DHT22;18974;50.838;4.636;2022-12-10T05:38:38;1.20;99.90
32536;DHT22;18974;50.838;4.636;2022-12-10T05:41:06;1.10;99.90
32536;DHT22;18974;50.838;4.636;2022-12-10T05:43:33;1.10;99.90
32536;DHT22;18974;50.838;4.636;2022-12-10T05:46:04;0.90;99.90
32536;DHT22;18974;50.838;4.636;2022-12-10T05:48:30;0.90;99.90
32536;DHT22;18974;50.838;4.636;2022-12-10T05:50:57;1.00;99.90
32536;DHT22;18974;50.838;4.636;2022-12-10T05:53:23;1.00;99.90
32536;DHT22;18974;50.838;4.636;2022-12-10T05:55:49;1.10;99.90
32536;DHT22;18974;50.838;4.636;2022-12-10T05:58:15;1.30;99.90
32536;DHT22;18974;50.838;4.636;2022-12-10T06:00:41;1.30;99.90
32536;DHT22;18974;50.838;4.636;2022-12-10T06:03:07;1.30;99.90
32536;DHT22;18974;50.838;4.636;2022-12-10T06:05:40;1.20;99.90
32536;DHT22;18974;50.838;4.636;2022-12-10T06:08:06;1.10;99.90
32536;DHT22;18974;50.838;4.636;2022-12-10T06:10:35;1.20;99.90
32536;DHT22;18974;50.838;4.636;2022-12-10T06:13:02;0.90;99.90
32536;DHT22;18974;50.838;4.636;2022-12-10T06:15:29;0.90;99.90
32536;DHT22;18974;50.838;4.636;2022-12-10T06:17:55;0.90;99.90
32536;DHT22;18974;50.838;4.636;2022-12-10T06:20:22;0.80;99.90
32536;DHT22;18974;50.838;4.636;2022-12-10T06:22:48;0.90;99.90
32536;DHT22;18974;50.838;4.636;2022-12-10T06:25:14;1.00;99.90
32536;DHT22;18974;50.838;4.636;2022-12-10T06:27:40;1.00;99.90
32536;DHT22;18974;50.838;4.636;2022-12-10T06:30:06;1.00;99.90
32536;DHT22;18974;50.838;4.636;2022-12-10T06:32:32;1.00;99.90
32536;DHT22;18974;50.838;4.636;2022-12-10T06:34:57;0.90;99.90
32536;DHT22;18974;50.838;4.636;2022-12-10T06:37:23;0.90;99.90
32536;DHT22;18974;50.838;4.636;2022-12-10T06:39:51;1.00;99.90
32536;DHT22;18974;50.838;4.636;2022-12-10T06:42:18;1.00;99.90
32536;DHT22;18974;50.838;4.636;2022-12-10T06:44:43;1.10;99.90
32536;DHT22;18974;50.838;4.636;2022-12-10T06:47:09;1.20;99.90
32536;DHT22;18974;50.838;4.636;2022-12-10T06:49:35;1.10;99.90
32536;DHT22;18974;50.838;4.636;2022-12-10T06:52:02;1.10;99.90
32536;DHT22;18974;50.838;4.636;2022-12-10T06:54:28;0.90;99.90
32536;DHT22;18974;50.838;4.636;2022-12-10T06:56:54;1.00;99.90
32536;DHT22;18974;50.838;4.636;2022-12-10T06:59:19;1.10;99.90
32536;DHT22;18974;50.838;4.636;2022-12-10T07:01:46;1.20;99.90
32536;DHT22;18974;50.838;4.636;2022-12-10T07:04:11;1.10;99.90
32536;DHT22;18974;50.838;4.636;2022-12-10T07:06:37;1.10;99.90
32536;DHT22;18974;50.838;4.636;2022-12-10T07:09:03;1.10;99.90
32536;DHT22;18974;50.838;4.636;2022-12-10T07:11:28;1.10;99.90
32536;DHT22;18974;50.838;4.636;2022-12-10T07:13:56;1.20;99.90
32536;DHT22;18974;50.838;4.636;2022-12-10T07:16:24;1.10;99.90
32536;DHT22;18974;50.838;4.636;2022-12-10T07:18:51;1.10;99.90
32536;DHT22;18974;50.838;4.636;2022-12-10T07:21:31;1.10;99.90
32536;DHT22;18974;50.838;4.636;2022-12-10T07:24:01;1.00;99.90
32536;DHT22;18974;50.838;4.636;2022-12-10T07:26:28;0.90;99.90
32536;DHT22;18974;50.838;4.636;2022-12-10T07:28:54;0.80;99.90
32536;DHT22;18974;50.838;4.636;2022-12-10T07:31:21;0.80;99.90
32536;DHT22;18974;50.838;4.636;2022-12-10T07:33:48;0.90;99.90
32536;DHT22;18974;50.838;4.636;2022-12-10T07:36:14;0.90;99.90
32536;DHT22;18974;50.838;4.636;2022-12-10T07:38:40;0.80;99.90
32536;DHT22;18974;50.838;4.636;2022-12-10T07:41:09;0.80;99.90
32536;DHT22;18974;50.838;4.636;2022-12-10T07:43:37;0.80;99.90
32536;DHT22;18974;50.838;4.636;2022-12-10T07:46:21;0.80;99.90
32536;DHT22;18974;50.838;4.636;2022-12-10T07:48:48;0.80;99.90
32536;DHT22;18974;50.838;4.636;2022-12-10T07:51:15;0.80;99.90
32536;DHT22;18974;50.838;4.636;2022-12-10T07:53:42;0.80;99.90
32536;DHT22;18974;50.838;4.636;2022-12-10T07:56:09;0.90;99.90
32536;DHT22;18974;50.838;4.636;2022-12-10T07:58:35;0.90;99.90
32536;DHT22;18974;50.838;4.636;2022-12-10T08:01:11;0.90;99.90
32536;DHT22;18974;50.838;4.636;2022-12-10T08:03:36;0.90;99.90
32536;DHT22;18974;50.838;4.636;2022-12-10T08:06:04;1.10;99.90
32536;DHT22;18974;50.838;4.636;2022-12-10T08:08:30;0.80;99.90
32536;DHT22;18974;50.838;4.636;2022-12-10T08:10:59;0.80;99.90
32536;DHT22;18974;50.838;4.636;2022-12-10T08:13:25;0.80;99.90
32536;DHT22;18974;50.838;4.636;2022-12-10T08:15:50;0.80;99.90
32536;DHT22;18974;50.838;4.636;2022-12-10T08:18:16;0.90;99.90
32536;DHT22;18974;50.838;4.636;2022-12-10T08:20:41;0.90;99.90
32536;DHT22;18974;50.838;4.636;2022-12-10T08:23:07;0.80;99.90
32536;DHT22;18974;50.838;4.636;2022-12-10T08:25:33;1.00;99.90
32536;DHT22;18974;50.838;4.636;2022-12-10T08:27:58;1.10;99.90
32536;DHT22;18974;50.838;4.636;2022-12-10T08:30:28;1.10;99.90
32536;DHT22;18974;50.838;4.636;2022-12-10T08:32:53;1.00;99.90
32536;DHT22;18974;50.838;4.636;2022-12-10T08:35:19;1.00;99.90
32536;DHT22;18974;50.838;4.636;2022-12-10T08:37:45;1.00;99.90
32536;DHT22;18974;50.838;4.636;2022-12-10T08:40:11;0.90;99.90
32536;DHT22;18974;50.838;4.636;2022-12-10T08:42:36;0.90;99.90
32536;DHT22;18974;50.838;4.636;2022-12-10T08:45:02;1.00;99.90
32536;DHT22;18974;50.838;4.636;2022-12-10T08:47:28;1.00;99.90
32536;DHT22;18974;50.838;4.636;2022-12-10T08:49:53;1.00;99.90
32536;DHT22;18974;50.838;4.636;2022-12-10T08:52:19;0.90;99.90
32536;DHT22;18974;50.838;4.636;2022-12-10T08:54:44;1.00;99.90
32536;DHT22;18974;50.838;4.636;2022-12-10T08:57:10;1.10;99.90
32536;DHT22;18974;50.838;4.636;2022-12-10T08:59:36;1.10;99.90
32536;DHT22;18974;50.838;4.636;2022-12-10T09:02:01;1.20;99.90
32536;DHT22;18974;50.838;4.636;2022-12-10T09:04:27;1.10;99.90
32536;DHT22;18974;50.838;4.636;2022-12-10T09:06:52;1.20;99.90
32536;DHT22;18974;50.838;4.636;2022-12-10T09:09:18;1.20;99.90
32536;DHT22;18974;50.838;4.636;2022-12-10T09:11:44;1.30;99.90
32536;DHT22;18974;50.838;4.636;2022-12-10T09:14:13;1.00;99.90
32536;DHT22;18974;50.838;4.636;2022-12-10T09:16:39;1.10;99.90
32536;DHT22;18974;50.838;4.636;2022-12-10T09:19:05;1.00;99.90
32536;DHT22;18974;50.838;4.636;2022-12-10T09:21:31;1.20;99.90
32536;DHT22;18974;50.838;4.636;2022-12-10T09:23:57;1.20;99.90
32536;DHT22;18974;50.838;4.636;2022-12-10T09:26:24;1.30;99.90
32536;DHT22;18974;50.838;4.636;2022-12-10T09:28:50;1.30;99.90
32536;DHT22;18974;50.838;4.636;2022-12-10T09:31:18;1.30;99.90
32536;DHT22;18974;50.838;4.636;2022-12-10T09:33:44;1.40;99.90
32536;DHT22;18974;50.838;4.636;2022-12-10T09:36:11;1.30;99.90
32536;DHT22;18974;50.838;4.636;2022-12-10T09:38:39;1.30;99.90
32536;DHT22;18974;50.838;4.636;2022-12-10T09:46:53;1.40;99.90
32536;DHT22;18974;50.838;4.636;2022-12-10T09:49:42;1.40;99.90
32536;DHT22;18974;50.838;4.636;2022-12-10T09:52:13;1.50;99.90
32536;DHT22;18974;50.838;4.636;2022-12-10T09:54:52;1.40;99.90
32536;DHT22;18974;50.838;4.636;2022-12-10T09:57:35;1.50;99.90
32536;DHT22;18974;50.838;4.636;2022-12-10T10:00:09;1.40;99.90
32536;DHT22;18974;50.838;4.636;2022-12-10T10:02:40;1.40;99.90
32536;DHT22;18974;50.838;4.636;2022-12-10T10:07:38;1.40;99.90
32536;DHT22;18974;50.838;4.636;2022-12-10T10:10:19;1.30;99.90
32536;DHT22;18974;50.838;4.636;2022-12-10T10:12:45;1.40;99.90
32536;DHT22;18974;50.838;4.636;2022-12-10T10:15:16;1.30;99.90
32536;DHT22;18974;50.838;4.636;2022-12-10T10:17:44;1.20;99.90
32536;DHT22;18974;50.838;4.636;2022-12-10T10:20:13;1.20;99.90
32536;DHT22;18974;50.838;4.636;2022-12-10T10:22:40;1.40;99.90
32536;DHT22;18974;50.838;4.636;2022-12-10T10:25:13;1.40;99.90
32536;DHT22;18974;50.838;4.636;2022-12-10T10:27:40;1.40;99.90
32536;DHT22;18974;50.838;4.636;2022-12-10T10:30:12;1.50;99.90
32536;DHT22;18974;50.838;4.636;2022-12-10T10:35:05;1.50;99.90
32536;DHT22;18974;50.838;4.636;2022-12-10T10:37:40;1.60;99.90
32536;DHT22;18974;50.838;4.636;2022-12-10T10:40:23;1.60;99.90
32536;DHT22;18974;50.838;4.636;2022-12-10T10:42:53;1.70;99.90
32536;DHT22;18974;50.838;4.636;2022-12-10T10:45:39;1.80;99.90
32536;DHT22;18974;50.838;4.636;2022-12-10T10:48:16;1.80;99.90
32536;DHT22;18974;50.838;4.636;2022-12-10T10:50:46;1.90;99.90
32536;DHT22;18974;50.838;4.636;2022-12-10T10:55:55;1.90;99.90
32536;DHT22;18974;50.838;4.636;2022-12-10T10:58:23;1.90;99.90
32536;DHT22;18974;50.838;4.636;2022-12-10T11:00:54;1.90;99.90
32536;DHT22;18974;50.838;4.636;2022-12-10T11:03:20;2.00;99.90
32536;DHT22;18974;50.838;4.636;2022-12-10T11:05:47;2.10;99.90
32536;DHT22;18974;50.838;4.636;2022-12-10T11:08:16;2.10;99.90
32536;DHT22;18974;50.838;4.636;2022-12-10T11:10:50;2.10;99.90
32536;DHT22;18974;50.838;4.636;2022-12-10T11:13:24;2.10;99.90
32536;DHT22;18974;50.838;4.636;2022-12-10T11:15:56;2.10;99.90
32536;DHT22;18974;50.838;4.636;2022-12-10T11:18:27;2.30;99.90
32536;DHT22;18974;50.838;4.636;2022-12-10T11:21:15;2.30;99.90
32536;DHT22;18974;50.838;4.636;2022-12-10T11:23:46;2.40;99.90
32536;DHT22;18974;50.838;4.636;2022-12-10T11:29:08;2.40;99.90
32536;DHT22;18974;50.838;4.636;2022-12-10T11:32:13;2.30;99.90
32536;DHT22;18974;50.838;4.636;2022-12-10T11:37:36;2.50;99.90
32536;DHT22;18974;50.838;4.636;2022-12-10T11:43:25;2.30;99.90
32536;DHT22;18974;50.838;4.636;2022-12-10T11:46:07;2.30;99.90
32536;DHT22;18974;50.838;4.636;2022-12-10T11:59:34;2.80;99.90
32536;DHT22;18974;50.838;4.636;2022-12-10T12:10:53;2.70;99.90
32536;DHT22;18974;50.838;4.636;2022-12-10T12:16:27;2.90;99.90
32536;DHT22;18974;50.838;4.636;2022-12-10T12:19:07;2.80;99.90
32536;DHT22;18974;50.838;4.636;2022-12-10T12:21:35;2.80;99.90
32536;DHT22;18974;50.838;4.636;2022-12-10T12:24:25;2.80;99.90
32536;DHT22;18974;50.838;4.636;2022-12-10T12:30:00;2.70;99.90
32536;DHT22;18974;50.838;4.636;2022-12-10T12:37:46;2.90;99.90
32536;DHT22;18974;50.838;4.636;2022-12-10T12:40:30;3.00;99.90
32536;DHT22;18974;50.838;4.636;2022-12-10T12:43:04;2.90;99.90
32536;DHT22;18974;50.838;4.636;2022-12-10T12:45:52;2.90;99.90
32536;DHT22;18974;50.838;4.636;2022-12-10T12:48:23;3.00;99.90
32536;DHT22;18974;50.838;4.636;2022-12-10T12:53:21;2.80;99.90
32536;DHT22;18974;50.838;4.636;2022-12-10T12:58:36;2.80;99.90
32536;DHT22;18974;50.838;4.636;2022-12-10T13:03:53;2.70;99.90
32536;DHT22;18974;50.838;4.636;2022-12-10T13:06:22;2.70;99.90
32536;DHT22;18974;50.838;4.636;2022-12-10T13:09:32;2.80;99.90
32536;DHT22;18974;50.838;4.636;2022-12-10T13:11:46;2.70;99.90
32536;DHT22;18974;50.838;4.636;2022-12-10T13:19:28;2.80;99.90
32536;DHT22;18974;50.838;4.636;2022-12-10T13:22:39;2.90;99.90
32536;DHT22;18974;50.838;4.636;2022-12-10T13:25:15;2.90;99.90
32536;DHT22;18974;50.838;4.636;2022-12-10T13:27:54;2.90;99.90
32536;DHT22;18974;50.838;4.636;2022-12-10T13:30:35;2.80;99.90
32536;DHT22;18974;50.838;4.636;2022-12-10T13:33:15;2.80;99.90
32536;DHT22;18974;50.838;4.636;2022-12-10T13:35:55;2.80;99.90
32536;DHT22;18974;50.838;4.636;2022-12-10T13:38:24;2.90;99.90
32536;DHT22;18974;50.838;4.636;2022-12-10T13:41:02;2.80;99.90
32536;DHT22;18974;50.838;4.636;2022-12-10T13:43:55;2.80;99.90
32536;DHT22;18974;50.838;4.636;2022-12-10T13:46:53;2.90;99.90
32536;DHT22;18974;50.838;4.636;2022-12-10T13:49:23;3.00;99.90
32536;DHT22;18974;50.838;4.636;2022-12-10T13:52:04;2.90;99.90
32536;DHT22;18974;50.838;4.636;2022-12-10T14:00:23;2.90;99.90
32536;DHT22;18974;50.838;4.636;2022-12-10T14:03:07;2.80;99.90
32536;DHT22;18974;50.838;4.636;2022-12-10T14:08:32;2.90;99.90
32536;DHT22;18974;50.838;4.636;2022-12-10T14:11:02;3.00;99.90
32536;DHT22;18974;50.838;4.636;2022-12-10T14:13:38;3.10;99.90
32536;DHT22;18974;50.838;4.636;2022-12-10T14:16:05;3.20;99.90
32536;DHT22;18974;50.838;4.636;2022-12-10T14:18:35;3.10;99.90
32536;DHT22;18974;50.838;4.636;2022-12-10T14:21:05;3.10;99.90
32536;DHT22;18974;50.838;4.636;2022-12-10T14:23:33;3.00;99.90
32536;DHT22;18974;50.838;4.636;2022-12-10T14:28:54;3.00;99.90
32536;DHT22;18974;50.838;4.636;2022-12-10T14:31:41;3.00;99.90
32536;DHT22;18974;50.838;4.636;2022-12-10T14:34:24;3.00;99.90
32536;DHT22;18974;50.838;4.636;2022-12-10T14:36:52;3.00;99.90
32536;DHT22;18974;50.838;4.636;2022-12-10T14:39:29;2.90;99.90
32536;DHT22;18974;50.838;4.636;2022-12-10T14:42:02;2.80;99.90
32536;DHT22;18974;50.838;4.636;2022-12-10T14:44:30;2.80;99.90
32536;DHT22;18974;50.838;4.636;2022-12-10T14:47:18;2.90;99.90
32536;DHT22;18974;50.838;4.636;2022-12-10T14:49:46;2.80;99.90
32536;DHT22;18974;50.838;4.636;2022-12-10T14:54:43;2.80;99.90
32536;DHT22;18974;50.838;4.636;2022-12-10T15:00:05;2.80;99.90
32536;DHT22;18974;50.838;4.636;2022-12-10T15:02:37;2.80;99.90
32536;DHT22;18974;50.838;4.636;2022-12-10T15:05:11;3.00;99.90
32536;DHT22;18974;50.838;4.636;2022-12-10T15:07:40;3.00;99.90
32536;DHT22;18974;50.838;4.636;2022-12-10T15:10:13;2.90;99.90
32536;DHT22;18974;50.838;4.636;2022-12-10T15:12:45;2.90;99.90
32536;DHT22;18974;50.838;4.636;2022-12-10T15:15:19;2.90;99.90
32536;DHT22;18974;50.838;4.636;2022-12-10T15:25:52;2.60;99.90
32536;DHT22;18974;50.838;4.636;2022-12-10T15:28:29;2.80;99.90
32536;DHT22;18974;50.838;4.636;2022-12-10T15:39:20;2.90;99.90
32536;DHT22;18974;50.838;4.636;2022-12-10T15:41:53;3.10;99.90
32536;DHT22;18974;50.838;4.636;2022-12-10T15:44:38;2.90;99.90
32536;DHT22;18974;50.838;4.636;2022-12-10T15:49:39;2.70;99.90
32536;DHT22;18974;50.838;4.636;2022-12-10T15:52:08;2.70;99.90
32536;DHT22;18974;50.838;4.636;2022-12-10T15:54:37;2.70;99.90
32536;DHT22;18974;50.838;4.636;2022-12-10T15:57:15;2.70;99.90
32536;DHT22;18974;50.838;4.636;2022-12-10T15:59:42;2.60;99.90
32536;DHT22;18974;50.838;4.636;2022-12-10T16:04:54;2.60;99.90
32536;DHT22;18974;50.838;4.636;2022-12-10T16:07:20;2.70;99.90
32536;DHT22;18974;50.838;4.636;2022-12-10T16:09:46;2.70;99.90
32536;DHT22;18974;50.838;4.636;2022-12-10T16:12:13;2.70;99.90
32536;DHT22;18974;50.838;4.636;2022-12-10T16:14:47;2.70;99.90
32536;DHT22;18974;50.838;4.636;2022-12-10T16:17:14;2.80;99.90
32536;DHT22;18974;50.838;4.636;2022-12-10T16:19:39;2.90;99.90
32536;DHT22;18974;50.838;4.636;2022-12-10T16:22:05;2.80;99.90
32536;DHT22;18974;50.838;4.636;2022-12-10T16:24:31;2.80;99.90
32536;DHT22;18974;50.838;4.636;2022-12-10T16:26:57;2.70;99.90
32536;DHT22;18974;50.838;4.636;2022-12-10T16:29:22;2.80;99.90
32536;DHT22;18974;50.838;4.636;2022-12-10T16:31:49;2.80;99.90
32536;DHT22;18974;50.838;4.636;2022-12-10T16:34:14;2.70;99.90
32536;DHT22;18974;50.838;4.636;2022-12-10T16:36:40;2.60;99.90
32536;DHT22;18974;50.838;4.636;2022-12-10T16:39:06;2.70;99.90
32536;DHT22;18974;50.838;4.636;2022-12-10T16:41:31;2.70;99.90
32536;DHT22;18974;50.838;4.636;2022-12-10T16:43:57;2.70;99.90
32536;DHT22;18974;50.838;4.636;2022-12-10T16:46:23;2.70;99.90
32536;DHT22;18974;50.838;4.636;2022-12-10T16:48:48;2.70;99.90
32536;DHT22;18974;50.838;4.636;2022-12-10T16:51:27;2.60;99.90
32536;DHT22;18974;50.838;4.636;2022-12-10T16:53:54;2.60;99.90
32536;DHT22;18974;50.838;4.636;2022-12-10T16:56:21;2.60;99.90
32536;DHT22;18974;50.838;4.636;2022-12-10T16:58:47;2.70;99.90
32536;DHT22;18974;50.838;4.636;2022-12-10T17:03:43;2.50;99.90
32536;DHT22;18974;50.838;4.636;2022-12-10T17:06:11;2.50;99.90
32536;DHT22;18974;50.838;4.636;2022-12-10T17:08:37;2.50;99.90
32536;DHT22;18974;50.838;4.636;2022-12-10T17:11:24;2.50;99.90
32536;DHT22;18974;50.838;4.636;2022-12-10T17:14:30;2.50;99.90
32536;DHT22;18974;50.838;4.636;2022-12-10T17:16:59;2.60;99.90
32536;DHT22;18974;50.838;4.636;2022-12-10T17:19:30;2.60;99.90
32536;DHT22;18974;50.838;4.636;2022-12-10T17:21:56;2.50;99.90
32536;DHT22;18974;50.838;4.636;2022-12-10T17:24:22;2.40;99.90
32536;DHT22;18974;50.838;4.636;2022-12-10T17:26:48;2.30;99.90
32536;DHT22;18974;50.838;4.636;2022-12-10T17:29:38;2.50;99.90
32536;DHT22;18974;50.838;4.636;2022-12-10T17:32:06;2.50;99.90
32536;DHT22;18974;50.838;4.636;2022-12-10T17:34:35;2.60;99.90
32536;DHT22;18974;50.838;4.636;2022-12-10T17:37:00;2.60;99.90
32536;DHT22;18974;50.838;4.636;2022-12-10T17:39:26;2.50;99.90
32536;DHT22;18974;50.838;4.636;2022-12-10T17:41:53;2.50;99.90
32536;DHT22;18974;50.838;4.636;2022-12-10T17:44:19;2.50;99.90
32536;DHT22;18974;50.838;4.636;2022-12-10T17:46:47;2.50;99.90
32536;DHT22;18974;50.838;4.636;2022-12-10T17:49:13;2.60;99.90
32536;DHT22;18974;50.838;4.636;2022-12-10T17:51:39;2.50;99.90
32536;DHT22;18974;50.838;4.636;2022-12-10T17:54:06;2.50;99.90
32536;DHT22;18974;50.838;4.636;2022-12-10T17:56:32;2.50;99.90
32536;DHT22;18974;50.838;4.636;2022-12-10T17:58:57;2.60;99.90
32536;DHT22;18974;50.838;4.636;2022-12-10T18:01:23;2.60;99.90
32536;DHT22;18974;50.838;4.636;2022-12-10T18:03:52;2.70;99.90